sensor_id;sensor_type;location;lat;lon;timestamp;temperature;humidity
7461;DHT22;6757;52.258;12.840;2023-05-29T00:01:09;13.40;98.30
7461;DHT22;6757;52.258;12.840;2023-05-29T00:03:36;13.40;98.60
7461;DHT22;6757;52.258;12.840;2023-05-29T00:06:03;13.30;98.90
7461;DHT22;6757;52.258;12.840;2023-05-29T00:08:32;13.30;99.30
7461;DHT22;6757;52.258;12.840;2023-05-29T00:10:59;13.20;99.60
7461;DHT22;6757;52.258;12.840;2023-05-29T00:13:26;13.20;99.90
7461;DHT22;6757;52.258;12.840;2023-05-29T00:15:53;13.10;99.90
7461;DHT22;6757;52.258;12.840;2023-05-29T00:18:21;13.10;99.90
7461;DHT22;6757;52.258;12.840;2023-05-29T00:20:48;13.10;99.90
7461;DHT22;6757;52.258;12.840;2023-05-29T00:23:14;12.90;99.90
7461;DHT22;6757;52.258;12.840;2023-05-29T00:25:43;12.90;99.90
7461;DHT22;6757;52.258;12.840;2023-05-29T00:28:10;12.80;99.90
7461;DHT22;6757;52.258;12.840;2023-05-29T00:30:37;12.80;99.90
7461;DHT22;6757;52.258;12.840;2023-05-29T00:33:05;12.70;99.90
7461;DHT22;6757;52.258;12.840;2023-05-29T00:35:32;12.70;99.90
7461;DHT22;6757;52.258;12.840;2023-05-29T00:37:59;12.60;99.90
7461;DHT22;6757;52.258;12.840;2023-05-29T00:40:26;12.60;99.90
7461;DHT22;6757;52.258;12.840;2023-05-29T00:42:54;12.50;99.90
7461;DHT22;6757;52.258;12.840;2023-05-29T00:45:21;12.50;99.90
7461;DHT22;6757;52.258;12.840;2023-05-29T00:47:48;12.40;99.90
7461;DHT22;6757;52.258;12.840;2023-05-29T00:50:15;12.40;99.90
7461;DHT22;6757;52.258;12.840;2023-05-29T00:52:43;12.30;99.90
7461;DHT22;6757;52.258;12.840;2023-05-29T00:55:11;12.30;99.90
7461;DHT22;6757;52.258;12.840;2023-05-29T00:57:39;12.20;99.90
7461;DHT22;6757;52.258;12.840;2023-05-29T01:00:08;12.20;99.90
7461;DHT22;6757;52.258;12.840;2023-05-29T01:02:40;12.20;99.90
7461;DHT22;6757;52.258;12.840;2023-05-29T01:05:10;12.10;99.90
7461;DHT22;6757;52.258;12.840;2023-05-29T01:07:37;12.10;99.90
7461;DHT22;6757;52.258;12.840;2023-05-29T01:10:04;12.00;99.90
7461;DHT22;6757;52.258;12.840;2023-05-29T01:12:38;12.00;99.90
7461;DHT22;6757;52.258;12.840;2023-05-29T01:15:24;12.00;99.90
7461;DHT22;6757;52.258;12.840;2023-05-29T01:18:17;11.90;99.90
7461;DHT22;6757;52.258;12.840;2023-05-29T01:20:52;11.80;99.90
7461;DHT22;6757;52.258;12.840;2023-05-29T01:27:01;11.70;99.90
7461;DHT22;6757;52.258;12.840;2023-05-29T01:29:32;11.70;99.90
7461;DHT22;6757;52.258;12.840;2023-05-29T01:32:01;11.60;99.90
7461;DHT22;6757;52.258;12.840;2023-05-29T01:34:29;11.60;99.90
7461;DHT22;6757;52.258;12.840;2023-05-29T01:36:56;11.50;99.90
7461;DHT22;6757;52.258;12.840;2023-05-29T01:39:23;11.50;99.90
7461;DHT22;6757;52.258;12.840;2023-05-29T01:41:51;11.40;99.90
7461;DHT22;6757;52.258;12.840;2023-05-29T01:44:21;11.40;99.90
7461;DHT22;6757;52.258;12.840;2023-05-29T01:46:49;11.40;99.90
7461;DHT22;6757;52.258;12.840;2023-05-29T01:49:16;11.30;99.90
7461;DHT22;6757;52.258;12.840;2023-05-29T01:51:44;11.30;99.90
7461;DHT22;6757;52.258;12.840;2023-05-29T01:54:11;11.20;99.90
7461;DHT22;6757;52.258;12.840;2023-05-29T01:56:38;11.20;99.90
7461;DHT22;6757;52.258;12.840;2023-05-29T01:59:05;11.20;99.90
7461;DHT22;6757;52.258;12.840;2023-05-29T02:01:34;11.10;99.90
7461;DHT22;6757;52.258;12.840;2023-05-29T02:04:01;11.00;99.90
7461;DHT22;6757;52.258;12.840;2023-05-29T02:06:27;11.00;99.90
7461;DHT22;6757;52.258;12.840;2023-05-29T02:08:56;11.00;99.90
7461;DHT22;6757;52.258;12.840;2023-05-29T02:11:23;11.00;99.90
7461;DHT22;6757;52.258;12.840;2023-05-29T02:13:51;10.90;99.90
7461;DHT22;6757;52.258;12.840;2023-05-29T02:16:18;10.90;99.90
7461;DHT22;6757;52.258;12.840;2023-05-29T02:18:47;10.80;99.90
7461;DHT22;6757;52.258;12.840;2023-05-29T02:21:14;10.80;99.90
7461;DHT22;6757;52.258;12.840;2023-05-29T02:23:41;10.80;99.90
7461;DHT22;6757;52.258;12.840;2023-05-29T02:26:08;10.70;99.90
7461;DHT22;6757;52.258;12.840;2023-05-29T02:28:35;10.70;99.90
7461;DHT22;6757;52.258;12.840;2023-05-29T02:31:02;10.70;99.90
7461;DHT22;6757;52.258;12.840;2023-05-29T02:33:29;10.60;99.90
7461;DHT22;6757;52.258;12.840;2023-05-29T02:35:57;10.60;99.90
7461;DHT22;6757;52.258;12.840;2023-05-29T02:38:24;10.50;99.90
7461;DHT22;6757;52.258;12.840;2023-05-29T02:40:51;10.50;99.90
7461;DHT22;6757;52.258;12.840;2023-05-29T02:43:22;10.50;99.90
7461;DHT22;6757;52.258;12.840;2023-05-29T02:45:49;10.40;99.90
7461;DHT22;6757;52.258;12.840;2023-05-29T02:48:15;10.40;99.90
7461;DHT22;6757;52.258;12.840;2023-05-29T02:50:42;10.30;99.90
7461;DHT22;6757;52.258;12.840;2023-05-29T02:53:11;10.30;99.90
7461;DHT22;6757;52.258;12.840;2023-05-29T02:55:38;10.30;99.90
7461;DHT22;6757;52.258;12.840;2023-05-29T02:58:05;10.20;99.90
7461;DHT22;6757;52.258;12.840;2023-05-29T03:00:33;10.20;99.90
7461;DHT22;6757;52.258;12.840;2023-05-29T03:03:00;10.20;99.90
7461;DHT22;6757;52.258;12.840;2023-05-29T03:05:27;10.10;99.90
7461;DHT22;6757;52.258;12.840;2023-05-29T03:07:54;10.10;99.90
7461;DHT22;6757;52.258;12.840;2023-05-29T03:10:22;10.00;99.90
7461;DHT22;6757;52.258;12.840;2023-05-29T03:12:49;10.00;99.90
7461;DHT22;6757;52.258;12.840;2023-05-29T03:15:16;10.00;99.90
7461;DHT22;6757;52.258;12.840;2023-05-29T03:17:45;9.90;99.90
7461;DHT22;6757;52.258;12.840;2023-05-29T03:20:12;9.90;99.90
7461;DHT22;6757;52.258;12.840;2023-05-29T03:22:41;9.90;99.90
7461;DHT22;6757;52.258;12.840;2023-05-29T03:25:08;9.90;99.90
7461;DHT22;6757;52.258;12.840;2023-05-29T03:27:37;9.80;99.90
7461;DHT22;6757;52.258;12.840;2023-05-29T03:30:04;9.80;99.90
7461;DHT22;6757;52.258;12.840;2023-05-29T03:32:32;9.80;99.90
7461;DHT22;6757;52.258;12.840;2023-05-29T03:34:59;9.80;99.90
7461;DHT22;6757;52.258;12.840;2023-05-29T03:37:26;9.70;99.90
7461;DHT22;6757;52.258;12.840;2023-05-29T03:39:53;9.70;99.90
7461;DHT22;6757;52.258;12.840;2023-05-29T03:42:20;9.70;99.90
7461;DHT22;6757;52.258;12.840;2023-05-29T03:44:49;9.70;99.90
7461;DHT22;6757;52.258;12.840;2023-05-29T03:47:16;9.70;99.90
7461;DHT22;6757;52.258;12.840;2023-05-29T03:49:42;9.70;99.90
7461;DHT22;6757;52.258;12.840;2023-05-29T03:52:09;9.70;99.90
7461;DHT22;6757;52.258;12.840;2023-05-29T03:54:36;9.70;99.90
7461;DHT22;6757;52.258;12.840;2023-05-29T03:57:03;9.80;99.90
7461;DHT22;6757;52.258;12.840;2023-05-29T03:59:32;9.80;99.90
7461;DHT22;6757;52.258;12.840;2023-05-29T04:02:00;9.80;99.90
7461;DHT22;6757;52.258;12.840;2023-05-29T04:04:27;9.80;99.90
7461;DHT22;6757;52.258;12.840;2023-05-29T04:06:54;9.80;99.90
7461;DHT22;6757;52.258;12.840;2023-05-29T04:09:22;9.90;99.90
7461;DHT22;6757;52.258;12.840;2023-05-29T04:11:49;9.90;99.90
7461;DHT22;6757;52.258;12.840;2023-05-29T04:14:17;9.90;99.90
7461;DHT22;6757;52.258;12.840;2023-05-29T04:16:44;9.90;99.90
7461;DHT22;6757;52.258;12.840;2023-05-29T04:19:12;10.00;99.90
7461;DHT22;6757;52.258;12.840;2023-05-29T04:21:39;10.00;99.90
7461;DHT22;6757;52.258;12.840;2023-05-29T04:24:06;10.10;99.90
7461;DHT22;6757;52.258;12.840;2023-05-29T04:26:33;10.10;99.90
7461;DHT22;6757;52.258;12.840;2023-05-29T04:29:00;10.20;99.90
7461;DHT22;6757;52.258;12.840;2023-05-29T04:31:27;10.20;99.90
7461;DHT22;6757;52.258;12.840;2023-05-29T04:33:54;10.30;99.90
7461;DHT22;6757;52.258;12.840;2023-05-29T04:36:24;10.30;99.90
7461;DHT22;6757;52.258;12.840;2023-05-29T04:38:52;10.40;99.90
7461;DHT22;6757;52.258;12.840;2023-05-29T04:41:19;10.40;99.90
7461;DHT22;6757;52.258;12.840;2023-05-29T04:43:49;10.50;99.90
7461;DHT22;6757;52.258;12.840;2023-05-29T04:46:17;10.60;99.90
7461;DHT22;6757;52.258;12.840;2023-05-29T04:48:44;10.70;99.90
7461;DHT22;6757;52.258;12.840;2023-05-29T04:51:11;10.70;99.90
7461;DHT22;6757;52.258;12.840;2023-05-29T04:53:40;10.80;99.90
7461;DHT22;6757;52.258;12.840;2023-05-29T04:56:07;10.90;99.90
7461;DHT22;6757;52.258;12.840;2023-05-29T04:58:35;11.00;99.90
7461;DHT22;6757;52.258;12.840;2023-05-29T05:01:02;11.20;99.90
7461;DHT22;6757;52.258;12.840;2023-05-29T05:03:29;11.20;99.90
7461;DHT22;6757;52.258;12.840;2023-05-29T05:05:59;11.30;99.90
7461;DHT22;6757;52.258;12.840;2023-05-29T05:08:27;11.40;99.90
7461;DHT22;6757;52.258;12.840;2023-05-29T05:10:56;11.50;99.90
7461;DHT22;6757;52.258;12.840;2023-05-29T05:13:23;11.60;99.90
7461;DHT22;6757;52.258;12.840;2023-05-29T05:15:50;11.70;99.90
7461;DHT22;6757;52.258;12.840;2023-05-29T05:18:17;11.90;99.90
7461;DHT22;6757;52.258;12.840;2023-05-29T05:20:44;11.90;99.90
7461;DHT22;6757;52.258;12.840;2023-05-29T05:23:11;12.00;99.90
7461;DHT22;6757;52.258;12.840;2023-05-29T05:25:38;12.20;99.90
7461;DHT22;6757;52.258;12.840;2023-05-29T05:28:08;12.30;99.90
7461;DHT22;6757;52.258;12.840;2023-05-29T05:30:35;12.40;99.90
7461;DHT22;6757;52.258;12.840;2023-05-29T05:33:02;12.50;99.90
7461;DHT22;6757;52.258;12.840;2023-05-29T05:35:29;12.60;99.90
7461;DHT22;6757;52.258;12.840;2023-05-29T05:37:56;12.70;99.90
7461;DHT22;6757;52.258;12.840;2023-05-29T05:40:24;12.80;99.90
7461;DHT22;6757;52.258;12.840;2023-05-29T05:42:51;13.30;99.90
7461;DHT22;6757;52.258;12.840;2023-05-29T05:45:19;13.10;99.90
7461;DHT22;6757;52.258;12.840;2023-05-29T05:47:46;13.20;99.90
7461;DHT22;6757;52.258;12.840;2023-05-29T05:50:13;13.30;99.90
7461;DHT22;6757;52.258;12.840;2023-05-29T05:52:41;13.40;99.90
7461;DHT22;6757;52.258;12.840;2023-05-29T05:55:08;13.50;99.90
7461;DHT22;6757;52.258;12.840;2023-05-29T05:57:35;13.60;99.90
7461;DHT22;6757;52.258;12.840;2023-05-29T06:00:02;13.70;99.90
7461;DHT22;6757;52.258;12.840;2023-05-29T06:02:33;13.80;99.90
7461;DHT22;6757;52.258;12.840;2023-05-29T06:05:00;13.80;99.90
7461;DHT22;6757;52.258;12.840;2023-05-29T06:07:26;13.90;99.90
7461;DHT22;6757;52.258;12.840;2023-05-29T06:09:54;14.00;99.90
7461;DHT22;6757;52.258;12.840;2023-05-29T06:12:21;14.00;99.90
7461;DHT22;6757;52.258;12.840;2023-05-29T06:14:47;14.10;99.90
7461;DHT22;6757;52.258;12.840;2023-05-29T06:17:15;14.20;99.90
7461;DHT22;6757;52.258;12.840;2023-05-29T06:19:43;14.20;99.90
7461;DHT22;6757;52.258;12.840;2023-05-29T06:22:10;14.30;99.90
7461;DHT22;6757;52.258;12.840;2023-05-29T06:24:37;14.40;99.90
7461;DHT22;6757;52.258;12.840;2023-05-29T06:27:04;14.50;99.90
7461;DHT22;6757;52.258;12.840;2023-05-29T06:29:31;14.50;99.90
7461;DHT22;6757;52.258;12.840;2023-05-29T06:31:58;14.60;99.90
7461;DHT22;6757;52.258;12.840;2023-05-29T06:34:25;14.70;99.90
7461;DHT22;6757;52.258;12.840;2023-05-29T06:36:54;14.80;99.90
7461;DHT22;6757;52.258;12.840;2023-05-29T06:39:21;14.80;99.90
7461;DHT22;6757;52.258;12.840;2023-05-29T06:41:48;14.90;99.90
7461;DHT22;6757;52.258;12.840;2023-05-29T06:44:15;15.00;99.90
7461;DHT22;6757;52.258;12.840;2023-05-29T06:46:42;15.10;99.90
7461;DHT22;6757;52.258;12.840;2023-05-29T06:49:09;15.10;99.90
7461;DHT22;6757;52.258;12.840;2023-05-29T06:51:36;15.20;99.90
7461;DHT22;6757;52.258;12.840;2023-05-29T06:54:04;15.30;99.90
7461;DHT22;6757;52.258;12.840;2023-05-29T06:56:32;15.50;99.90
7461;DHT22;6757;52.258;12.840;2023-05-29T06:58:58;15.50;99.90
7461;DHT22;6757;52.258;12.840;2023-05-29T07:01:25;15.60;99.90
7461;DHT22;6757;52.258;12.840;2023-05-29T07:03:53;15.70;99.90
7461;DHT22;6757;52.258;12.840;2023-05-29T07:06:20;15.80;99.90
7461;DHT22;6757;52.258;12.840;2023-05-29T07:08:47;15.90;99.90
7461;DHT22;6757;52.258;12.840;2023-05-29T07:11:15;16.10;99.90
7461;DHT22;6757;52.258;12.840;2023-05-29T07:13:42;16.20;99.90
7461;DHT22;6757;52.258;12.840;2023-05-29T07:16:09;16.30;99.90
7461;DHT22;6757;52.258;12.840;2023-05-29T07:18:36;16.40;99.90
7461;DHT22;6757;52.258;12.840;2023-05-29T07:21:03;16.50;99.90
7461;DHT22;6757;52.258;12.840;2023-05-29T07:23:31;16.60;99.90
7461;DHT22;6757;52.258;12.840;2023-05-29T07:25:58;16.70;99.90
7461;DHT22;6757;52.258;12.840;2023-05-29T07:28:28;16.80;99.90
7461;DHT22;6757;52.258;12.840;2023-05-29T07:30:55;16.90;99.90
7461;DHT22;6757;52.258;12.840;2023-05-29T07:33:22;16.90;99.90
7461;DHT22;6757;52.258;12.840;2023-05-29T07:35:49;17.00;99.90
7461;DHT22;6757;52.258;12.840;2023-05-29T07:38:16;17.10;99.90
7461;DHT22;6757;52.258;12.840;2023-05-29T07:40:44;17.20;99.90
7461;DHT22;6757;52.258;12.840;2023-05-29T07:43:11;17.30;99.90
7461;DHT22;6757;52.258;12.840;2023-05-29T07:45:39;17.40;99.90
7461;DHT22;6757;52.258;12.840;2023-05-29T07:48:06;17.40;99.90
7461;DHT22;6757;52.258;12.840;2023-05-29T07:50:33;17.50;99.90
7461;DHT22;6757;52.258;12.840;2023-05-29T07:53:00;17.60;99.90
7461;DHT22;6757;52.258;12.840;2023-05-29T07:55:27;17.70;99.90
7461;DHT22;6757;52.258;12.840;2023-05-29T07:57:54;17.80;99.90
7461;DHT22;6757;52.258;12.840;2023-05-29T08:00:21;17.90;99.90
7461;DHT22;6757;52.258;12.840;2023-05-29T08:02:50;17.90;99.90
7461;DHT22;6757;52.258;12.840;2023-05-29T08:05:17;18.00;99.90
7461;DHT22;6757;52.258;12.840;2023-05-29T08:07:44;18.00;99.90
7461;DHT22;6757;52.258;12.840;2023-05-29T08:10:12;18.00;99.90
7461;DHT22;6757;52.258;12.840;2023-05-29T08:12:39;18.10;99.90
7461;DHT22;6757;52.258;12.840;2023-05-29T08:15:07;18.10;99.90
7461;DHT22;6757;52.258;12.840;2023-05-29T08:17:34;18.20;99.90
7461;DHT22;6757;52.258;12.840;2023-05-29T08:20:03;18.30;99.90
7461;DHT22;6757;52.258;12.840;2023-05-29T08:22:32;18.40;99.60
7461;DHT22;6757;52.258;12.840;2023-05-29T08:25:00;18.50;99.20
7461;DHT22;6757;52.258;12.840;2023-05-29T08:27:27;18.60;98.70
7461;DHT22;6757;52.258;12.840;2023-05-29T08:29:54;18.90;98.30
7461;DHT22;6757;52.258;12.840;2023-05-29T08:32:21;18.80;97.10
7461;DHT22;6757;52.258;12.840;2023-05-29T08:34:48;18.90;96.10
7461;DHT22;6757;52.258;12.840;2023-05-29T08:37:16;19.00;95.30
7461;DHT22;6757;52.258;12.840;2023-05-29T08:39:43;19.00;94.60
7461;DHT22;6757;52.258;12.840;2023-05-29T08:42:13;19.00;94.00
7461;DHT22;6757;52.258;12.840;2023-05-29T08:44:47;19.10;93.70
7461;DHT22;6757;52.258;12.840;2023-05-29T08:47:16;19.10;93.50
7461;DHT22;6757;52.258;12.840;2023-05-29T08:49:50;19.10;93.30
7461;DHT22;6757;52.258;12.840;2023-05-29T08:52:22;19.10;93.00
7461;DHT22;6757;52.258;12.840;2023-05-29T08:54:51;19.20;92.80
7461;DHT22;6757;52.258;12.840;2023-05-29T08:57:19;19.20;92.80
7461;DHT22;6757;52.258;12.840;2023-05-29T08:59:47;19.30;92.80
7461;DHT22;6757;52.258;12.840;2023-05-29T09:02:18;19.40;92.70
7461;DHT22;6757;52.258;12.840;2023-05-29T09:04:45;19.40;92.70
7461;DHT22;6757;52.258;12.840;2023-05-29T09:07:14;19.50;92.40
7461;DHT22;6757;52.258;12.840;2023-05-29T09:09:42;19.50;92.10
7461;DHT22;6757;52.258;12.840;2023-05-29T09:12:09;19.60;91.90
7461;DHT22;6757;52.258;12.840;2023-05-29T09:14:37;19.60;91.70
7461;DHT22;6757;52.258;12.840;2023-05-29T09:17:07;19.70;91.40
7461;DHT22;6757;52.258;12.840;2023-05-29T09:19:34;19.80;90.50
7461;DHT22;6757;52.258;12.840;2023-05-29T09:22:03;19.80;90.20
7461;DHT22;6757;52.258;12.840;2023-05-29T09:24:32;19.80;90.10
7461;DHT22;6757;52.258;12.840;2023-05-29T09:27:01;19.90;90.10
7461;DHT22;6757;52.258;12.840;2023-05-29T09:29:31;19.90;90.10
7461;DHT22;6757;52.258;12.840;2023-05-29T09:31:59;20.00;90.20
7461;DHT22;6757;52.258;12.840;2023-05-29T09:34:26;20.10;90.30
7461;DHT22;6757;52.258;12.840;2023-05-29T09:37:00;20.20;90.30
7461;DHT22;6757;52.258;12.840;2023-05-29T09:39:34;20.40;90.20
7461;DHT22;6757;52.258;12.840;2023-05-29T09:42:09;20.50;90.10
7461;DHT22;6757;52.258;12.840;2023-05-29T09:44:37;20.60;89.60
7461;DHT22;6757;52.258;12.840;2023-05-29T09:47:04;20.50;88.90
7461;DHT22;6757;52.258;12.840;2023-05-29T09:49:32;20.60;88.70
7461;DHT22;6757;52.258;12.840;2023-05-29T09:51:59;20.60;87.90
7461;DHT22;6757;52.258;12.840;2023-05-29T09:54:28;20.60;87.30
7461;DHT22;6757;52.258;12.840;2023-05-29T09:56:56;20.60;87.10
7461;DHT22;6757;52.258;12.840;2023-05-29T09:59:28;20.80;87.10
7461;DHT22;6757;52.258;12.840;2023-05-29T10:02:01;21.00;86.70
7461;DHT22;6757;52.258;12.840;2023-05-29T10:04:30;21.10;85.90
7461;DHT22;6757;52.258;12.840;2023-05-29T10:07:00;21.20;85.10
7461;DHT22;6757;52.258;12.840;2023-05-29T10:09:33;21.20;85.30
7461;DHT22;6757;52.258;12.840;2023-05-29T10:12:03;21.20;84.40
7461;DHT22;6757;52.258;12.840;2023-05-29T10:14:35;21.20;84.20
7461;DHT22;6757;52.258;12.840;2023-05-29T10:17:07;21.30;84.20
7461;DHT22;6757;52.258;12.840;2023-05-29T10:19:36;21.40;84.10
7461;DHT22;6757;52.258;12.840;2023-05-29T10:22:05;21.50;83.90
7461;DHT22;6757;52.258;12.840;2023-05-29T10:24:33;21.50;83.50
7461;DHT22;6757;52.258;12.840;2023-05-29T10:27:02;21.60;83.20
7461;DHT22;6757;52.258;12.840;2023-05-29T10:29:34;21.50;82.70
7461;DHT22;6757;52.258;12.840;2023-05-29T10:32:12;21.50;82.50
7461;DHT22;6757;52.258;12.840;2023-05-29T10:34:50;21.40;82.30
7461;DHT22;6757;52.258;12.840;2023-05-29T10:37:32;21.40;82.20
7461;DHT22;6757;52.258;12.840;2023-05-29T10:40:05;21.40;82.10
7461;DHT22;6757;52.258;12.840;2023-05-29T10:42:44;21.30;82.10
7461;DHT22;6757;52.258;12.840;2023-05-29T10:45:48;21.30;82.10
7461;DHT22;6757;52.258;12.840;2023-05-29T10:48:42;21.30;82.10
7461;DHT22;6757;52.258;12.840;2023-05-29T10:51:27;21.40;82.20
7461;DHT22;6757;52.258;12.840;2023-05-29T10:53:56;21.40;82.00
7461;DHT22;6757;52.258;12.840;2023-05-29T10:56:28;21.60;82.00
7461;DHT22;6757;52.258;12.840;2023-05-29T10:58:59;21.80;81.70
7461;DHT22;6757;52.258;12.840;2023-05-29T11:01:30;21.90;81.20
7461;DHT22;6757;52.258;12.840;2023-05-29T11:04:25;21.90;80.70
7461;DHT22;6757;52.258;12.840;2023-05-29T11:06:57;21.80;80.40
7461;DHT22;6757;52.258;12.840;2023-05-29T11:09:29;21.80;80.10
7461;DHT22;6757;52.258;12.840;2023-05-29T11:12:17;21.80;80.00
7461;DHT22;6757;52.258;12.840;2023-05-29T11:15:04;21.70;79.80
7461;DHT22;6757;52.258;12.840;2023-05-29T11:17:43;21.70;79.70
7461;DHT22;6757;52.258;12.840;2023-05-29T11:20:17;21.70;79.80
7461;DHT22;6757;52.258;12.840;2023-05-29T11:23:00;21.90;79.90
7461;DHT22;6757;52.258;12.840;2023-05-29T11:25:32;22.00;79.70
7461;DHT22;6757;52.258;12.840;2023-05-29T11:28:00;22.10;78.60
7461;DHT22;6757;52.258;12.840;2023-05-29T11:30:29;22.30;78.30
7461;DHT22;6757;52.258;12.840;2023-05-29T11:32:59;22.40;78.00
7461;DHT22;6757;52.258;12.840;2023-05-29T11:35:29;22.50;77.70
7461;DHT22;6757;52.258;12.840;2023-05-29T11:37:57;22.60;77.10
7461;DHT22;6757;52.258;12.840;2023-05-29T11:40:24;22.70;76.60
7461;DHT22;6757;52.258;12.840;2023-05-29T11:42:51;22.90;76.40
7461;DHT22;6757;52.258;12.840;2023-05-29T11:45:20;23.10;75.90
7461;DHT22;6757;52.258;12.840;2023-05-29T11:47:52;23.20;75.30
7461;DHT22;6757;52.258;12.840;2023-05-29T11:50:23;23.30;74.60
7461;DHT22;6757;52.258;12.840;2023-05-29T11:52:50;23.20;73.30
7461;DHT22;6757;52.258;12.840;2023-05-29T11:55:18;23.10;72.90
7461;DHT22;6757;52.258;12.840;2023-05-29T11:57:46;22.90;73.10
7461;DHT22;6757;52.258;12.840;2023-05-29T12:00:15;22.90;73.20
7461;DHT22;6757;52.258;12.840;2023-05-29T12:02:44;23.10;73.10
7461;DHT22;6757;52.258;12.840;2023-05-29T12:05:13;23.50;72.70
7461;DHT22;6757;52.258;12.840;2023-05-29T12:07:48;23.90;71.80
7461;DHT22;6757;52.258;12.840;2023-05-29T12:10:17;24.40;70.60
7461;DHT22;6757;52.258;12.840;2023-05-29T12:12:49;24.80;69.30
7461;DHT22;6757;52.258;12.840;2023-05-29T12:15:18;25.30;68.20
7461;DHT22;6757;52.258;12.840;2023-05-29T12:17:45;25.60;66.50
7461;DHT22;6757;52.258;12.840;2023-05-29T12:20:13;26.00;65.20
7461;DHT22;6757;52.258;12.840;2023-05-29T12:22:42;26.30;64.20
7461;DHT22;6757;52.258;12.840;2023-05-29T12:25:12;26.50;63.20
7461;DHT22;6757;52.258;12.840;2023-05-29T12:27:41;26.40;62.60
7461;DHT22;6757;52.258;12.840;2023-05-29T12:30:09;26.50;61.40
7461;DHT22;6757;52.258;12.840;2023-05-29T12:32:40;26.70;60.30
7461;DHT22;6757;52.258;12.840;2023-05-29T12:35:12;27.00;59.40
7461;DHT22;6757;52.258;12.840;2023-05-29T12:37:47;27.40;58.60
7461;DHT22;6757;52.258;12.840;2023-05-29T12:40:17;27.80;57.60
7461;DHT22;6757;52.258;12.840;2023-05-29T12:42:45;28.10;56.20
7461;DHT22;6757;52.258;12.840;2023-05-29T12:45:12;28.10;55.50
7461;DHT22;6757;52.258;12.840;2023-05-29T12:47:45;28.10;54.90
7461;DHT22;6757;52.258;12.840;2023-05-29T12:50:23;28.30;54.20
7461;DHT22;6757;52.258;12.840;2023-05-29T12:52:58;28.50;53.40
7461;DHT22;6757;52.258;12.840;2023-05-29T12:55:28;28.70;52.30
7461;DHT22;6757;52.258;12.840;2023-05-29T12:57:56;28.90;51.80
7461;DHT22;6757;52.258;12.840;2023-05-29T13:00:24;29.20;51.30
7461;DHT22;6757;52.258;12.840;2023-05-29T13:02:51;29.60;51.00
7461;DHT22;6757;52.258;12.840;2023-05-29T13:05:18;30.00;50.20
7461;DHT22;6757;52.258;12.840;2023-05-29T13:07:48;30.30;49.00
7461;DHT22;6757;52.258;12.840;2023-05-29T13:10:15;30.30;47.70
7461;DHT22;6757;52.258;12.840;2023-05-29T13:12:44;30.30;47.40
7461;DHT22;6757;52.258;12.840;2023-05-29T13:15:13;30.30;47.30
7461;DHT22;6757;52.258;12.840;2023-05-29T13:17:40;30.40;47.40
7461;DHT22;6757;52.258;12.840;2023-05-29T13:20:09;30.40;47.30
7461;DHT22;6757;52.258;12.840;2023-05-29T13:22:37;30.40;47.60
7461;DHT22;6757;52.258;12.840;2023-05-29T13:25:05;30.60;47.80
7461;DHT22;6757;52.258;12.840;2023-05-29T13:27:35;30.90;47.50
7461;DHT22;6757;52.258;12.840;2023-05-29T13:30:05;31.20;46.90
7461;DHT22;6757;52.258;12.840;2023-05-29T13:32:33;31.30;46.60
7461;DHT22;6757;52.258;12.840;2023-05-29T13:35:00;31.50;46.10
7461;DHT22;6757;52.258;12.840;2023-05-29T13:37:27;31.60;45.90
7461;DHT22;6757;52.258;12.840;2023-05-29T13:39:54;31.70;45.60
7461;DHT22;6757;52.258;12.840;2023-05-29T13:42:21;31.70;45.00
7461;DHT22;6757;52.258;12.840;2023-05-29T13:44:49;31.30;44.50
7461;DHT22;6757;52.258;12.840;2023-05-29T13:47:18;31.20;44.80
7461;DHT22;6757;52.258;12.840;2023-05-29T13:49:45;31.10;45.10
7461;DHT22;6757;52.258;12.840;2023-05-29T13:52:12;31.20;45.30
7461;DHT22;6757;52.258;12.840;2023-05-29T13:54:39;31.30;45.40
7461;DHT22;6757;52.258;12.840;2023-05-29T13:57:06;31.50;45.30
7461;DHT22;6757;52.258;12.840;2023-05-29T13:59:34;31.60;45.20
7461;DHT22;6757;52.258;12.840;2023-05-29T14:02:02;31.70;44.60
7461;DHT22;6757;52.258;12.840;2023-05-29T14:04:30;31.60;44.60
7461;DHT22;6757;52.258;12.840;2023-05-29T14:06:57;31.60;44.60
7461;DHT22;6757;52.258;12.840;2023-05-29T14:09:24;31.60;44.40
7461;DHT22;6757;52.258;12.840;2023-05-29T14:11:54;31.60;44.30
7461;DHT22;6757;52.258;12.840;2023-05-29T14:14:21;31.60;44.10
7461;DHT22;6757;52.258;12.840;2023-05-29T14:16:49;31.70;43.90
7461;DHT22;6757;52.258;12.840;2023-05-29T14:19:17;31.60;43.30
7461;DHT22;6757;52.258;12.840;2023-05-29T14:21:45;31.40;43.20
7461;DHT22;6757;52.258;12.840;2023-05-29T14:24:12;31.30;43.20
7461;DHT22;6757;52.258;12.840;2023-05-29T14:26:41;31.40;43.40
7461;DHT22;6757;52.258;12.840;2023-05-29T14:29:10;31.40;43.00
7461;DHT22;6757;52.258;12.840;2023-05-29T14:31:37;31.30;42.60
7461;DHT22;6757;52.258;12.840;2023-05-29T14:34:04;31.10;42.60
7461;DHT22;6757;52.258;12.840;2023-05-29T14:36:31;31.10;42.90
7461;DHT22;6757;52.258;12.840;2023-05-29T14:39:00;31.20;43.20
7461;DHT22;6757;52.258;12.840;2023-05-29T14:41:27;31.30;43.10
7461;DHT22;6757;52.258;12.840;2023-05-29T14:43:53;31.50;43.10
7461;DHT22;6757;52.258;12.840;2023-05-29T14:46:23;31.70;43.00
7461;DHT22;6757;52.258;12.840;2023-05-29T14:48:51;31.90;42.90
7461;DHT22;6757;52.258;12.840;2023-05-29T14:51:19;31.90;42.70
7461;DHT22;6757;52.258;12.840;2023-05-29T14:53:46;31.90;42.70
7461;DHT22;6757;52.258;12.840;2023-05-29T14:56:15;31.90;42.70
7461;DHT22;6757;52.258;12.840;2023-05-29T14:58:43;32.20;42.80
7461;DHT22;6757;52.258;12.840;2023-05-29T15:01:10;32.30;42.60
7461;DHT22;6757;52.258;12.840;2023-05-29T15:03:37;32.50;42.50
7461;DHT22;6757;52.258;12.840;2023-05-29T15:06:05;32.40;42.10
7461;DHT22;6757;52.258;12.840;2023-05-29T15:08:33;32.50;42.00
7461;DHT22;6757;52.258;12.840;2023-05-29T15:11:00;32.50;41.80
7461;DHT22;6757;52.258;12.840;2023-05-29T15:13:29;32.80;41.40
7461;DHT22;6757;52.258;12.840;2023-05-29T15:15:56;32.80;41.00
7461;DHT22;6757;52.258;12.840;2023-05-29T15:18:25;32.70;40.60
7461;DHT22;6757;52.258;12.840;2023-05-29T15:20:53;32.50;40.00
7461;DHT22;6757;52.258;12.840;2023-05-29T15:23:21;32.10;39.70
7461;DHT22;6757;52.258;12.840;2023-05-29T15:25:48;31.70;39.90
7461;DHT22;6757;52.258;12.840;2023-05-29T15:28:16;31.40;40.20
7461;DHT22;6757;52.258;12.840;2023-05-29T15:30:44;31.20;40.50
7461;DHT22;6757;52.258;12.840;2023-05-29T15:33:12;31.00;40.50
7461;DHT22;6757;52.258;12.840;2023-05-29T15:35:39;30.70;40.80
7461;DHT22;6757;52.258;12.840;2023-05-29T15:38:08;30.60;41.10
7461;DHT22;6757;52.258;12.840;2023-05-29T15:40:35;30.40;41.30
7461;DHT22;6757;52.258;12.840;2023-05-29T15:43:02;30.30;41.30
7461;DHT22;6757;52.258;12.840;2023-05-29T15:45:29;30.00;41.40
7461;DHT22;6757;52.258;12.840;2023-05-29T15:47:58;29.90;41.90
7461;DHT22;6757;52.258;12.840;2023-05-29T15:50:25;29.90;42.10
7461;DHT22;6757;52.258;12.840;2023-05-29T15:52:52;29.90;42.30
7461;DHT22;6757;52.258;12.840;2023-05-29T15:55:19;30.00;42.40
7461;DHT22;6757;52.258;12.840;2023-05-29T15:57:46;30.10;42.50
7461;DHT22;6757;52.258;12.840;2023-05-29T16:00:14;30.00;42.60